createdAt,value
2018-08-24T00:00:03.605Z,97528.69
2018-08-24T00:02:31.782Z,97523.08
2018-08-24T00:05:00.290Z,97520.12
2018-08-24T00:07:28.526Z,97515.64
2018-08-24T00:09:57.085Z,97518.03
2018-08-24T00:12:25.537Z,97513.70
2018-08-24T00:14:53.700Z,97517.84
2018-08-24T00:17:36.405Z,97509.14
2018-08-24T00:20:04.592Z,97502.97
2018-08-24T00:22:33.997Z,97496.94
2018-08-24T00:25:02.197Z,97499.72
2018-08-24T00:27:30.687Z,97493.20
2018-08-24T00:29:59.116Z,97494.36
2018-08-24T00:32:27.628Z,97503.98
2018-08-24T00:34:55.796Z,97498.59
2018-08-24T00:37:23.968Z,97495.64
2018-08-24T00:39:52.148Z,97496.03
2018-08-24T00:42:20.328Z,97496.62
2018-08-24T00:44:48.812Z,97502.09
2018-08-24T00:47:16.992Z,97505.12
2018-08-24T00:49:45.160Z,97508.51
2018-08-24T00:52:13.316Z,97505.42
2018-08-24T00:54:41.512Z,97508.73
2018-08-24T00:57:09.700Z,97505.00
2018-08-24T00:59:37.868Z,97508.14
2018-08-24T01:02:06.052Z,97515.80
2018-08-24T01:04:36.367Z,97519.05
2018-08-24T01:07:09.879Z,97521.53
2018-08-24T01:09:38.672Z,97515.33
2018-08-24T01:12:12.113Z,97509.94
2018-08-24T01:14:42.097Z,97506.30
2018-08-24T01:17:15.699Z,97504.31
2018-08-24T01:19:44.479Z,97509.30
2018-08-24T01:22:13.025Z,97504.27
2018-08-24T01:24:41.199Z,97501.20
2018-08-24T01:27:09.831Z,97504.63
2018-08-24T01:29:39.532Z,97504.27
2018-08-24T01:32:08.035Z,97496.66
2018-08-24T01:37:04.488Z,97498.91
2018-08-24T01:42:00.376Z,97496.16
2018-08-24T01:44:29.084Z,97504.22
2018-08-24T01:46:57.486Z,97496.16
2018-08-24T01:49:25.646Z,97494.59
2018-08-24T01:51:53.806Z,97489.25
2018-08-24T01:54:21.978Z,97480.83
2018-08-24T01:56:50.175Z,97481.42
2018-08-24T01:59:18.314Z,97482.48
2018-08-24T02:01:46.475Z,97479.86
2018-08-24T02:04:14.649Z,97481.38
2018-08-24T02:06:42.843Z,97474.95
2018-08-24T02:09:12.371Z,97482.77
2018-08-24T02:11:40.536Z,97475.58
2018-08-24T02:14:10.059Z,97476.09
2018-08-24T02:16:39.263Z,97471.95
2018-08-24T02:19:10.496Z,97479.55
2018-08-24T02:21:44.021Z,97472.70
2018-08-24T02:24:12.765Z,97472.83
2018-08-24T02:26:41.688Z,97474.34
2018-08-24T02:29:09.865Z,97484.20
2018-08-24T02:31:43.408Z,97479.00
2018-08-24T02:34:11.620Z,97476.46
2018-08-24T02:36:39.778Z,97467.30
2018-08-24T02:39:12.681Z,97467.62
2018-08-24T02:41:41.145Z,97459.70
2018-08-24T02:44:10.153Z,97461.50
2018-08-24T02:46:38.886Z,97461.50
2018-08-24T02:49:07.892Z,97455.98
2018-08-24T02:51:36.084Z,97460.23
2018-08-24T02:54:04.540Z,97460.23
2018-08-24T02:56:32.700Z,97462.13
2018-08-24T02:59:00.868Z,97461.23
2018-08-24T03:01:29.568Z,97453.47
2018-08-24T03:03:57.736Z,97461.30
2018-08-24T03:06:25.916Z,97457.61
2018-08-24T03:08:54.142Z,97456.00
2018-08-24T03:11:22.369Z,97447.53
2018-08-24T03:13:50.623Z,97453.42
2018-08-24T03:16:19.046Z,97451.95
2018-08-24T03:18:47.180Z,97463.40
2018-08-24T03:21:15.354Z,97463.48
2018-08-24T03:23:43.533Z,97465.23
2018-08-24T03:26:11.711Z,97462.08
2018-08-24T03:28:39.879Z,97461.92
2018-08-24T03:31:08.075Z,97457.18
2018-08-24T03:33:36.539Z,97464.00
2018-08-24T03:36:05.043Z,97460.22
2018-08-24T03:38:33.225Z,97459.91
2018-08-24T03:41:01.395Z,97454.15
2018-08-24T03:43:29.572Z,97450.61
2018-08-24T03:45:57.853Z,97444.11
2018-08-24T03:48:25.927Z,97447.83
2018-08-24T03:50:54.393Z,97452.60
2018-08-24T03:53:22.948Z,97455.50
2018-08-24T03:55:51.324Z,97455.05
2018-08-24T03:58:19.481Z,97462.00
2018-08-24T04:00:47.651Z,97456.82
2018-08-24T04:03:15.822Z,97455.40
2018-08-24T04:05:44.000Z,97462.37
2018-08-24T04:08:12.352Z,97470.58
2018-08-24T04:10:40.556Z,97462.97
2018-08-24T04:13:08.736Z,97464.57
2018-08-24T04:15:36.916Z,97467.55
2018-08-24T04:18:05.399Z,97473.33
2018-08-24T04:20:33.571Z,97480.44
2018-08-24T04:23:01.775Z,97478.21
2018-08-24T04:25:30.814Z,97476.08
2018-08-24T04:27:58.945Z,97473.14
2018-08-24T04:30:27.119Z,97469.25
2018-08-24T04:32:55.593Z,97463.78
2018-08-24T04:35:23.768Z,97469.30
2018-08-24T04:37:51.941Z,97472.66
2018-08-24T04:40:20.520Z,97484.44
2018-08-24T04:42:48.885Z,97485.16
2018-08-24T04:45:17.076Z,97484.75
2018-08-24T04:47:46.080Z,97488.73
2018-08-24T04:50:14.240Z,97502.38
2018-08-24T04:52:42.412Z,97513.27
2018-08-24T04:55:10.624Z,97524.54
2018-08-24T04:57:38.780Z,97523.61
2018-08-24T05:00:08.632Z,97524.14
2018-08-24T05:02:36.934Z,97526.59
2018-08-24T05:05:06.160Z,97524.44
2018-08-24T05:07:34.323Z,97520.20
2018-08-24T05:10:02.552Z,97521.22
2018-08-24T05:12:30.695Z,97520.61
2018-08-24T05:14:58.909Z,97516.78
2018-08-24T05:17:27.075Z,97515.16
2018-08-24T05:19:55.245Z,97514.64
2018-08-24T05:22:23.464Z,97515.11
2018-08-24T05:24:51.804Z,97524.94
2018-08-24T05:27:19.887Z,97521.95
2018-08-24T05:29:48.079Z,97521.10
2018-08-24T05:32:16.247Z,97524.52
2018-08-24T05:34:44.425Z,97523.77
2018-08-24T05:37:12.611Z,97520.89
2018-08-24T05:39:40.833Z,97531.87
2018-08-24T05:42:08.993Z,97522.74
2018-08-24T05:44:37.310Z,97532.05
2018-08-24T05:47:05.762Z,97531.48
2018-08-24T05:49:33.949Z,97540.00
2018-08-24T05:52:02.164Z,97548.75
2018-08-24T05:54:30.329Z,97547.53
2018-08-24T05:56:58.560Z,97545.89
2018-08-24T05:59:26.757Z,97549.45
2018-08-24T06:01:55.565Z,97548.05
2018-08-24T06:04:24.053Z,97553.01
2018-08-24T06:06:52.276Z,97552.44
2018-08-24T06:09:20.458Z,97548.03
2018-08-24T06:11:48.624Z,97548.98
2018-08-24T06:14:16.864Z,97542.06
2018-08-24T06:16:50.187Z,97543.36
2018-08-24T06:19:19.419Z,97539.16
2018-08-24T06:21:47.580Z,97542.56
2018-08-24T06:24:15.750Z,97534.89
2018-08-24T06:26:44.424Z,97536.56
2018-08-24T06:29:12.610Z,97541.61
2018-08-24T06:31:40.764Z,97543.59
2018-08-24T06:34:09.163Z,97534.83
2018-08-24T06:36:37.364Z,97532.83
2018-08-24T06:39:08.414Z,97531.08
2018-08-24T06:41:36.753Z,97539.10
2018-08-24T06:44:04.976Z,97538.13
2018-08-24T06:46:33.307Z,97547.73
2018-08-24T06:49:01.468Z,97561.95
2018-08-24T06:51:29.792Z,97563.30
2018-08-24T06:53:58.167Z,97571.32
2018-08-24T06:56:26.317Z,97572.33
2018-08-24T06:58:54.507Z,97559.40
2018-08-24T07:01:23.023Z,97565.29
2018-08-24T07:03:51.194Z,97576.24
2018-08-24T07:06:19.739Z,97571.52
2018-08-24T07:08:47.921Z,97569.45
2018-08-24T07:11:17.605Z,97561.02
2018-08-24T07:13:48.053Z,97568.06
2018-08-24T07:16:16.241Z,97557.38
2018-08-24T07:18:44.405Z,97549.48
2018-08-24T07:21:12.571Z,97554.83
2018-08-24T07:23:40.859Z,97558.09
2018-08-24T07:26:09.050Z,97567.44
2018-08-24T07:28:37.258Z,97573.89
2018-08-24T07:31:05.733Z,97578.71
2018-08-24T07:33:34.213Z,97584.67
2018-08-24T07:36:02.677Z,97584.70
2018-08-24T07:38:30.837Z,97593.14
2018-08-24T07:40:59.007Z,97594.70
2018-08-24T07:43:27.555Z,97596.86
2018-08-24T07:45:55.721Z,97603.18
2018-08-24T07:48:23.909Z,97609.31
2018-08-24T07:50:52.373Z,97610.05
2018-08-24T07:53:26.897Z,97601.91
2018-08-24T07:55:55.139Z,97611.18
2018-08-24T07:58:23.320Z,97618.55
2018-08-24T08:00:51.529Z,97616.66
2018-08-24T08:03:19.688Z,97622.30
2018-08-24T08:05:47.912Z,97634.53
2018-08-24T08:08:16.109Z,97635.37
2018-08-24T08:10:44.269Z,97643.77
2018-08-24T08:13:12.984Z,97646.02
2018-08-24T08:15:41.492Z,97652.98
2018-08-24T08:18:09.921Z,97656.77
2018-08-24T08:20:38.389Z,97667.78
2018-08-24T08:23:06.551Z,97669.66
2018-08-24T08:25:35.031Z,97669.66
2018-08-24T08:28:03.194Z,97662.66
2018-08-24T08:30:32.030Z,97659.87
2018-08-24T08:33:00.195Z,97657.30
2018-08-24T08:35:28.676Z,97658.03
2018-08-24T08:37:56.869Z,97654.42
2018-08-24T08:40:25.048Z,97647.04
2018-08-24T08:42:53.297Z,97642.94
2018-08-24T08:45:21.505Z,97646.83
2018-08-24T08:47:49.977Z,97642.16
2018-08-24T08:50:18.129Z,97635.59
2018-08-24T08:52:46.302Z,97637.53
2018-08-24T08:55:14.752Z,97638.67
2018-08-24T08:57:42.914Z,97640.39
2018-08-24T09:00:11.072Z,97648.61
2018-08-24T09:02:39.248Z,97650.99
2018-08-24T09:05:07.702Z,97653.98
2018-08-24T09:07:35.860Z,97651.19
2018-08-24T09:10:04.036Z,97645.14
2018-08-24T09:12:32.516Z,97644.90
2018-08-24T09:15:00.670Z,97639.94
2018-08-24T09:17:34.162Z,97650.45
2018-08-24T09:20:07.647Z,97646.64
2018-08-24T09:22:41.550Z,97648.69
2018-08-24T09:26:12.523Z,97654.31
2018-08-24T09:28:41.224Z,97645.91
2018-08-24T09:31:19.381Z,97657.62
2018-08-24T09:33:47.679Z,97648.58
2018-08-24T09:36:18.905Z,97658.58
2018-08-24T09:38:47.505Z,97658.91
2018-08-24T09:41:15.677Z,97652.06
2018-08-24T09:43:49.241Z,97663.58
2018-08-24T09:46:17.400Z,97658.93
2018-08-24T09:48:50.764Z,97655.09
2018-08-24T09:51:25.545Z,97660.84
2018-08-24T09:53:59.115Z,97667.61
2018-08-24T09:56:28.051Z,97672.02
2018-08-24T09:58:56.317Z,97678.48
2018-08-24T10:01:29.859Z,97676.48
2018-08-24T10:04:03.364Z,97676.64
2018-08-24T10:06:37.311Z,97668.09
2018-08-24T10:09:10.560Z,97663.42
2018-08-24T10:11:38.729Z,97668.63
2018-08-24T10:14:07.114Z,97652.69
2018-08-24T10:16:35.311Z,97653.37
2018-08-24T10:19:03.493Z,97641.19
2018-08-24T10:21:31.640Z,97643.33
2018-08-24T10:24:00.288Z,97640.27
2018-08-24T10:26:28.490Z,97638.78
2018-08-24T10:28:56.681Z,97639.88
2018-08-24T10:31:24.879Z,97639.41
2018-08-24T10:33:53.122Z,97642.22
2018-08-24T10:36:21.283Z,97643.31
2018-08-24T10:38:49.431Z,97641.52
2018-08-24T10:41:17.615Z,97637.19
2018-08-24T10:43:45.823Z,97632.39
2018-08-24T10:46:14.021Z,97631.91
2018-08-24T10:48:42.213Z,97628.83
2018-08-24T10:51:10.401Z,97630.16
2018-08-24T10:53:45.007Z,97624.07
2018-08-24T10:56:13.505Z,97622.86
2018-08-24T10:58:41.668Z,97622.07
2018-08-24T11:01:09.868Z,97613.43
2018-08-24T11:03:38.042Z,97618.08
2018-08-24T11:06:06.201Z,97613.00
2018-08-24T11:08:34.383Z,97614.05
2018-08-24T11:11:02.550Z,97610.83
2018-08-24T11:13:30.772Z,97609.61
2018-08-24T11:15:59.003Z,97606.25
2018-08-24T11:18:27.205Z,97615.91
2018-08-24T11:20:55.428Z,97607.56
2018-08-24T11:23:23.610Z,97604.17
2018-08-24T11:25:52.705Z,97604.73
2018-08-24T11:28:20.894Z,97613.70
2018-08-24T11:30:49.096Z,97611.42
2018-08-24T11:33:20.282Z,97610.90
2018-08-24T11:35:48.479Z,97598.63
2018-08-24T11:38:16.936Z,97596.80
2018-08-24T11:40:45.107Z,97599.68
2018-08-24T11:43:13.276Z,97602.11
2018-08-24T11:45:41.640Z,97595.42
2018-08-24T11:48:09.824Z,97597.50
2018-08-24T11:50:38.052Z,97597.70
2018-08-24T11:53:06.273Z,97590.61
2018-08-24T11:55:34.772Z,97574.20
2018-08-24T11:58:03.142Z,97567.65
2018-08-24T12:00:32.489Z,97560.59
2018-08-24T12:03:02.081Z,97554.91
2018-08-24T12:05:30.686Z,97569.09
2018-08-24T12:07:58.934Z,97565.09
2018-08-24T12:10:27.114Z,97558.61
2018-08-24T12:12:56.036Z,97556.59
2018-08-24T12:15:24.213Z,97546.48
2018-08-24T12:17:53.012Z,97548.27
2018-08-24T12:20:21.205Z,97547.50
2018-08-24T12:22:50.032Z,97544.88
2018-08-24T12:25:18.261Z,97542.13
2018-08-24T12:27:46.492Z,97540.96
2018-08-24T12:30:15.812Z,97529.39
2018-08-24T12:32:44.229Z,97535.52
2018-08-24T12:35:12.431Z,97539.54
2018-08-24T12:37:47.128Z,97544.70
2018-08-24T12:40:15.929Z,97538.56
2018-08-24T12:42:44.161Z,97527.78
2018-08-24T12:45:12.769Z,97530.38
2018-08-24T12:47:41.270Z,97533.08
2018-08-24T12:50:09.996Z,97520.45
2018-08-24T12:52:38.187Z,97530.58
2018-08-24T12:55:06.684Z,97535.28
2018-08-24T12:57:34.844Z,97543.46
2018-08-24T13:00:03.095Z,97541.86
2018-08-24T13:02:31.294Z,97557.00
2018-08-24T13:04:59.519Z,97551.61
2018-08-24T13:07:27.782Z,97550.98
2018-08-24T13:09:56.370Z,97553.61
2018-08-24T13:12:24.547Z,97544.77
2018-08-24T13:14:52.713Z,97538.41
2018-08-24T13:17:20.944Z,97543.27
2018-08-24T13:19:50.517Z,97541.41
2018-08-24T13:22:18.689Z,97531.34
2018-08-24T13:24:47.193Z,97539.75
2018-08-24T13:27:15.384Z,97538.19
2018-08-24T13:29:43.532Z,97530.74
2018-08-24T13:32:11.972Z,97536.48
2018-08-24T13:34:40.592Z,97537.48
2018-08-24T13:37:08.858Z,97533.34
2018-08-24T13:39:37.039Z,97523.41
2018-08-24T13:42:05.406Z,97525.64
2018-08-24T13:44:33.751Z,97519.28
2018-08-24T13:47:01.963Z,97513.05
2018-08-24T13:49:30.205Z,97519.89
2018-08-24T13:51:59.177Z,97523.84
2018-08-24T13:54:27.353Z,97516.75
2018-08-24T13:56:55.524Z,97512.62
2018-08-24T13:59:23.865Z,97521.88
2018-08-24T14:01:52.038Z,97514.61
2018-08-24T14:04:20.282Z,97505.54
2018-08-24T14:06:48.586Z,97503.66
2018-08-24T14:09:16.842Z,97503.89
2018-08-24T14:11:45.076Z,97506.98
2018-08-24T14:14:13.354Z,97512.38
2018-08-24T14:16:41.558Z,97487.42
2018-08-24T14:19:10.077Z,97485.59
2018-08-24T14:21:38.253Z,97488.55
2018-08-24T14:24:06.841Z,97475.89
2018-08-24T14:26:35.118Z,97468.48
2018-08-24T14:29:03.273Z,97479.58
2018-08-24T14:31:31.600Z,97486.58
2018-08-24T14:33:59.821Z,97487.28
2018-08-24T14:36:27.991Z,97483.63
2018-08-24T14:38:56.396Z,97472.16
2018-08-24T14:41:24.725Z,97472.88
2018-08-24T14:43:53.032Z,97479.21
2018-08-24T14:46:21.239Z,97486.14
2018-08-24T14:48:49.666Z,97491.63
2018-08-24T14:51:17.887Z,97488.95
2018-08-24T14:53:46.402Z,97483.06
2018-08-24T14:56:14.582Z,97471.79
2018-08-24T14:58:42.820Z,97467.65
2018-08-24T15:01:11.010Z,97470.12
2018-08-24T15:03:39.170Z,97470.84
2018-08-24T15:06:08.045Z,97473.06
2018-08-24T15:08:36.223Z,97465.05
2018-08-24T15:11:04.697Z,97464.98
2018-08-24T15:13:32.914Z,97470.05
2018-08-24T15:16:01.134Z,97464.21
2018-08-24T15:18:29.519Z,97474.23
2018-08-24T15:20:57.758Z,97478.36
2018-08-24T15:23:25.945Z,97470.81
2018-08-24T15:25:54.151Z,97475.62
2018-08-24T15:28:22.841Z,97474.66
2018-08-24T15:30:51.241Z,97478.34
2018-08-24T15:33:19.443Z,97470.12
2018-08-24T15:35:47.609Z,97466.92
2018-08-24T15:38:16.087Z,97473.44
2018-08-24T15:40:44.616Z,97486.77
2018-08-24T15:43:12.777Z,97472.91
2018-08-24T15:45:41.008Z,97474.98
2018-08-24T15:48:09.151Z,97478.03
2018-08-24T15:50:37.334Z,97479.59
2018-08-24T15:53:05.532Z,97479.05
2018-08-24T15:55:33.685Z,97485.22
2018-08-24T15:58:01.924Z,97476.73
2018-08-24T16:00:30.090Z,97471.69
2018-08-24T16:02:58.267Z,97473.20
2018-08-24T16:05:26.438Z,97472.84
2018-08-24T16:07:54.626Z,97473.88
2018-08-24T16:10:22.779Z,97488.02
2018-08-24T16:12:51.133Z,97495.80
2018-08-24T16:15:19.340Z,97498.81
2018-08-24T16:17:52.814Z,97504.74
2018-08-24T16:20:20.989Z,97507.56
2018-08-24T16:22:49.695Z,97512.50
2018-08-24T16:25:18.048Z,97511.48
2018-08-24T16:27:46.327Z,97508.81
2018-08-24T16:30:14.683Z,97502.64
2018-08-24T16:32:43.064Z,97498.88
2018-08-24T16:35:11.226Z,97486.27
2018-08-24T16:37:39.557Z,97493.11
2018-08-24T16:40:08.071Z,97496.89
2018-08-24T16:42:36.267Z,97505.80
2018-08-24T16:45:05.028Z,97514.61
2018-08-24T16:47:33.292Z,97520.55
2018-08-24T16:50:01.578Z,97515.72
2018-08-24T16:52:29.793Z,97523.33
2018-08-24T16:54:58.093Z,97522.25
2018-08-24T16:57:26.373Z,97514.39
2018-08-24T16:59:54.724Z,97513.09
2018-08-24T17:02:22.980Z,97506.47
2018-08-24T17:04:51.158Z,97514.89
2018-08-24T17:07:19.317Z,97513.12
2018-08-24T17:09:47.618Z,97519.76
2018-08-24T17:12:15.838Z,97527.44
2018-08-24T17:14:44.095Z,97535.50
2018-08-24T17:17:12.461Z,97548.00
2018-08-24T17:19:40.805Z,97540.24
2018-08-24T17:22:09.202Z,97544.75
2018-08-24T17:24:37.381Z,97531.58
2018-08-24T17:27:05.861Z,97530.73
2018-08-24T17:29:34.061Z,97530.98
2018-08-24T17:32:02.601Z,97535.20
2018-08-24T17:34:30.829Z,97531.56
2018-08-24T17:36:59.035Z,97531.41
2018-08-24T17:39:27.241Z,97524.44
2018-08-24T17:41:55.502Z,97518.30
2018-08-24T17:44:23.639Z,97515.00
2018-08-24T17:46:51.845Z,97510.78
2018-08-24T17:49:20.055Z,97511.72
2018-08-24T17:51:48.348Z,97505.15
2018-08-24T17:54:16.578Z,97508.04
2018-08-24T17:56:44.716Z,97505.50
2018-08-24T17:59:12.924Z,97508.92
2018-08-24T18:01:41.106Z,97513.70
2018-08-24T18:04:09.322Z,97511.92
2018-08-24T18:06:37.828Z,97516.30
2018-08-24T18:09:08.862Z,97521.68
2018-08-24T18:11:37.297Z,97527.76
2018-08-24T18:14:05.909Z,97526.83
2018-08-24T18:16:34.092Z,97526.65
2018-08-24T18:19:02.307Z,97532.87
2018-08-24T18:21:30.473Z,97533.32
2018-08-24T18:23:58.669Z,97542.44
2018-08-24T18:26:26.934Z,97541.50
2018-08-24T18:28:55.157Z,97544.42
2018-08-24T18:31:23.413Z,97533.42
2018-08-24T18:33:51.653Z,97528.27
2018-08-24T18:36:19.837Z,97528.22
2018-08-24T18:38:48.345Z,97530.11
2018-08-24T18:41:16.519Z,97523.79
2018-08-24T18:43:44.775Z,97536.52
2018-08-24T18:46:13.019Z,97532.95
2018-08-24T18:48:41.284Z,97539.81
2018-08-24T18:51:09.965Z,97536.87
2018-08-24T18:53:38.179Z,97535.62
2018-08-24T18:56:06.407Z,97541.42
2018-08-24T18:58:34.636Z,97557.35
2018-08-24T19:01:02.846Z,97543.91
2018-08-24T19:03:31.023Z,97546.22
2018-08-24T19:05:59.204Z,97539.75
2018-08-24T19:08:27.412Z,97544.32
2018-08-24T19:11:00.916Z,97547.67
2018-08-24T19:13:29.204Z,97549.45
2018-08-24T19:15:57.707Z,97546.93
2018-08-24T19:19:32.088Z,97548.67
2018-08-24T19:22:01.997Z,97561.20
2018-08-24T19:24:30.237Z,97566.81
2018-08-24T19:26:58.704Z,97576.66
2018-08-24T19:29:32.216Z,97582.30
2018-08-24T19:32:00.493Z,97588.00
2018-08-24T19:34:28.702Z,97598.95
2018-08-24T19:36:57.221Z,97606.36
2018-08-24T19:39:25.773Z,97609.34
2018-08-24T19:41:59.229Z,97603.56
2018-08-24T19:44:27.430Z,97601.32
2018-08-24T19:46:55.733Z,97597.48
2018-08-24T19:49:24.118Z,97598.16
2018-08-24T19:51:52.297Z,97598.95
2018-08-24T19:54:20.493Z,97599.16
2018-08-24T19:56:48.752Z,97610.02
2018-08-24T19:59:17.832Z,97610.58
2018-08-24T20:01:45.999Z,97620.33
2018-08-24T20:04:14.207Z,97615.59
2018-08-24T20:06:47.706Z,97609.01
2018-08-24T20:09:21.284Z,97616.78
2018-08-24T20:11:51.342Z,97609.05
2018-08-24T20:15:23.541Z,97608.80
2018-08-24T20:17:52.633Z,97618.05
2018-08-24T20:20:20.820Z,97615.91
2018-08-24T20:22:49.520Z,97610.81
2018-08-24T20:25:17.738Z,97612.78
2018-08-24T20:27:45.989Z,97614.02
2018-08-24T20:30:14.230Z,97612.45
2018-08-24T20:32:42.442Z,97609.63
2018-08-24T20:35:10.982Z,97616.62
2018-08-24T20:37:39.543Z,97626.69
2018-08-24T20:40:08.013Z,97629.95
2018-08-24T20:42:36.189Z,97639.36
2018-08-24T20:45:04.418Z,97640.28
2018-08-24T20:47:32.618Z,97642.31
2018-08-24T20:50:00.813Z,97648.52
2018-08-24T20:52:29.461Z,97644.36
2018-08-24T20:54:57.700Z,97642.00
2018-08-24T20:57:26.901Z,97638.27
2018-08-24T20:59:55.103Z,97648.77
2018-08-24T21:02:23.295Z,97644.91
2018-08-24T21:04:51.505Z,97647.60
2018-08-24T21:07:20.097Z,97651.58
2018-08-24T21:09:48.305Z,97660.64
2018-08-24T21:12:16.563Z,97652.55
2018-08-24T21:14:44.757Z,97658.38
2018-08-24T21:17:12.949Z,97659.89
2018-08-24T21:19:41.151Z,97675.80
2018-08-24T21:22:09.370Z,97673.30
2018-08-24T21:24:37.567Z,97676.09
2018-08-24T21:27:05.849Z,97673.64
2018-08-24T21:29:34.015Z,97676.50
2018-08-24T21:32:02.694Z,97687.48
2018-08-24T21:34:30.964Z,97675.55
2018-08-24T21:36:59.642Z,97674.36
2018-08-24T21:39:27.849Z,97662.15
2018-08-24T21:41:56.127Z,97662.41
2018-08-24T21:44:24.226Z,97677.92
2018-08-24T21:46:52.437Z,97681.05
2018-08-24T21:49:20.602Z,97685.43
2018-08-24T21:51:48.776Z,97686.78
2018-08-24T21:54:16.952Z,97687.40
2018-08-24T21:56:45.146Z,97693.48
2018-08-24T21:59:13.658Z,97698.80
2018-08-24T22:01:41.890Z,97697.03
2018-08-24T22:04:10.096Z,97704.50
2018-08-24T22:06:38.278Z,97699.58
2018-08-24T22:09:07.797Z,97707.06
2018-08-24T22:11:35.994Z,97709.82
2018-08-24T22:14:04.177Z,97714.94
2018-08-24T22:16:32.417Z,97715.91
2018-08-24T22:19:00.624Z,97716.48
2018-08-24T22:21:28.838Z,97718.48
2018-08-24T22:23:57.056Z,97721.20
2018-08-24T22:26:25.245Z,97717.69
2018-08-24T22:28:53.768Z,97714.29
2018-08-24T22:31:21.960Z,97711.73
2018-08-24T22:33:50.143Z,97699.74
2018-08-24T22:36:18.564Z,97689.13
2018-08-24T22:38:46.788Z,97690.70
2018-08-24T22:41:14.943Z,97685.98
2018-08-24T22:43:43.131Z,97690.70
2018-08-24T22:46:11.298Z,97685.39
2018-08-24T22:48:39.461Z,97684.21
2018-08-24T22:51:07.637Z,97691.48
2018-08-24T22:53:35.818Z,97699.11
2018-08-24T22:56:04.301Z,97695.61
2018-08-24T22:58:32.461Z,97690.11
2018-08-24T23:01:00.633Z,97684.41
2018-08-24T23:03:28.785Z,97685.98
2018-08-24T23:05:56.964Z,97690.70
2018-08-24T23:08:25.134Z,97691.84
2018-08-24T23:10:53.557Z,97690.64
2018-08-24T23:13:21.709Z,97689.29
2018-08-24T23:15:50.204Z,97690.45
2018-08-24T23:18:18.376Z,97695.17
2018-08-24T23:20:46.556Z,97693.59
2018-08-24T23:23:15.035Z,97698.52
2018-08-24T23:25:43.204Z,97694.43
2018-08-24T23:28:11.440Z,97695.30
2018-08-24T23:30:39.576Z,97694.39
2018-08-24T23:33:07.732Z,97687.22
2018-08-24T23:35:35.908Z,97692.50
2018-08-24T23:38:04.292Z,97696.84
2018-08-24T23:40:32.740Z,97694.30
2018-08-24T23:43:00.928Z,97690.14
2018-08-24T23:45:29.100Z,97681.45
2018-08-24T23:47:57.266Z,97677.88
2018-08-24T23:50:25.442Z,97679.03
2018-08-24T23:52:53.625Z,97676.39
2018-08-24T23:55:21.785Z,97672.22
2018-08-24T23:57:49.939Z,97670.47
